Somerville, Ohio
Current Conditions -  °F | °C
As of 2:35 AM on Saturday 29 Nov 2014 (Local Time) from KMWO Reporting Station
Clear Clear  
Wind Chill: 31°   Ceiling: Unl
Heat Index: 37°   Visibility: 10mi
Dew Point: 18°   Wind: 7mph
Humidity: 47%   Direction: 200°SSW
Pressure: 30.08"   Gusts: NA
Location:  39.56°N, 84.64°W
Report Text: KMWO 290735Z AUTO 20006KT 10SM CLR 03/M08 A3008 RMK AO2 T00261076
Loading
Personal Weather Stations






























Interactive Weather Map New forecast layout! Learn more

10-Day Weather Forecast

Advertisements
Track Severe Weather on mobile